Terminal Aerodrome Forecast
Issued by NWS

Home | Current Version | Previous Version | Text Only | Print | Product List | Glossary On
Versions: 1 2 3 4 5 6 7 8 9 10 11 12 13 14 15 16 17 18 19 20 21 22 23 24
000
FTUS44 KTSA 020520
TAFFYV
TAF
KFYV 020520Z 0206/0306 35003KT P6SM VCSH OVC100
     FM021200 34003KT P6SM OVC050
     FM021500 32005KT P6SM OVC025
     FM021800 32008KT P6SM OVC050
     FM030300 27003KT P6SM BKN250=

USA.gov is the U.S. government's official web portal to all federal, state and local government web resources and services.